createdAt,value
2019-05-23T00:01:45.201Z,80.70
2019-05-23T00:04:20.893Z,81.40
2019-05-23T00:06:49.874Z,80.70
2019-05-23T00:09:18.524Z,80.80
2019-05-23T00:11:48.659Z,81.00
2019-05-23T00:14:24.194Z,81.20
2019-05-23T00:16:54.209Z,81.20
2019-05-23T00:19:24.274Z,81.30
2019-05-23T00:21:53.155Z,81.30
2019-05-23T00:24:22.407Z,81.30
2019-05-23T00:26:51.072Z,81.50
2019-05-23T00:29:19.845Z,82.50
2019-05-23T00:31:49.903Z,82.20
2019-05-23T00:34:18.341Z,81.50
2019-05-23T00:36:47.164Z,81.70
2019-05-23T00:39:17.093Z,82.10
2019-05-23T00:41:46.143Z,82.80
2019-05-23T00:44:14.848Z,83.00
2019-05-23T00:46:43.685Z,83.00
2019-05-23T00:49:13.134Z,82.90
2019-05-23T00:51:41.577Z,83.00
2019-05-23T00:54:11.107Z,83.50
2019-05-23T00:56:39.565Z,83.70
2019-05-23T00:59:08.201Z,83.30
2019-05-23T01:01:37.976Z,82.40
2019-05-23T01:04:06.762Z,82.50
2019-05-23T01:06:35.841Z,83.00
2019-05-23T01:09:06.941Z,83.00
2019-05-23T01:11:36.460Z,82.90
2019-05-23T01:14:05.497Z,82.50
2019-05-23T01:16:33.923Z,82.40
2019-05-23T01:19:02.652Z,82.70
2019-05-23T01:21:48.950Z,82.90
2019-05-23T01:24:21.816Z,83.20
2019-05-23T01:26:50.573Z,83.70
2019-05-23T01:29:20.951Z,84.20
2019-05-23T01:31:51.330Z,84.30
2019-05-23T01:34:19.737Z,84.70
2019-05-23T01:36:48.436Z,85.30
2019-05-23T01:39:16.831Z,85.70
2019-05-23T01:41:46.826Z,85.80
2019-05-23T01:44:16.338Z,86.60
2019-05-23T01:46:44.778Z,87.30
2019-05-23T01:49:13.608Z,87.80
2019-05-23T01:51:42.634Z,88.80
2019-05-23T01:54:11.358Z,89.10
2019-05-23T01:56:40.325Z,89.30
2019-05-23T01:59:08.703Z,89.80
2019-05-23T02:01:37.890Z,90.20
2019-05-23T02:04:06.524Z,90.30
2019-05-23T02:06:35.063Z,90.40
2019-05-23T02:09:06.362Z,90.60
2019-05-23T02:11:35.486Z,90.60
2019-05-23T02:14:04.303Z,90.60
2019-05-23T02:16:33.671Z,90.60
2019-05-23T02:19:03.189Z,90.50
2019-05-23T02:21:31.639Z,90.70
2019-05-23T02:24:00.711Z,90.90
2019-05-23T02:26:30.814Z,91.10
2019-05-23T02:29:00.802Z,91.10
2019-05-23T02:31:29.191Z,91.10
2019-05-23T02:33:58.195Z,91.30
2019-05-23T02:36:26.649Z,91.50
2019-05-23T02:38:56.621Z,91.50
2019-05-23T02:41:41.805Z,91.50
2019-05-23T02:44:14.759Z,90.70
2019-05-23T02:46:45.158Z,90.80
2019-05-23T02:49:15.629Z,91.10
2019-05-23T02:51:44.306Z,91.20
2019-05-23T02:54:14.072Z,91.30
2019-05-23T02:56:42.476Z,91.30
2019-05-23T02:59:35.560Z,91.30
2019-05-23T03:02:43.200Z,91.00
2019-05-23T03:05:16.303Z,91.40
2019-05-23T03:07:45.437Z,91.90
2019-05-23T03:10:16.028Z,92.20
2019-05-23T03:12:46.165Z,92.00
2019-05-23T03:15:16.242Z,91.80
2019-05-23T03:17:50.930Z,91.40
2019-05-23T03:20:20.570Z,91.50
2019-05-23T03:23:04.282Z,91.60
2019-05-23T03:25:42.449Z,91.80
2019-05-23T03:28:12.563Z,92.10
2019-05-23T03:30:48.250Z,92.30
2019-05-23T03:33:17.855Z,92.50
2019-05-23T03:35:53.919Z,92.60
2019-05-23T03:38:23.065Z,92.80
2019-05-23T03:40:51.466Z,92.70
2019-05-23T03:43:20.780Z,92.60
2019-05-23T03:45:50.828Z,92.80
2019-05-23T03:48:20.647Z,92.40
2019-05-23T03:50:50.839Z,92.50
2019-05-23T03:53:20.835Z,92.40
2019-05-23T03:55:50.205Z,91.80
2019-05-23T03:58:20.562Z,91.70
2019-05-23T04:00:50.549Z,91.80
2019-05-23T04:03:18.981Z,91.70
2019-05-23T04:05:47.966Z,91.70
2019-05-23T04:08:16.861Z,91.70
2019-05-23T04:10:45.483Z,91.40
2019-05-23T04:13:14.349Z,91.30
2019-05-23T04:15:43.561Z,91.40
2019-05-23T04:18:11.967Z,91.30
2019-05-23T04:20:40.369Z,91.40
2019-05-23T04:23:08.949Z,91.60
2019-05-23T04:25:37.576Z,91.50
2019-05-23T04:28:06.158Z,91.50
2019-05-23T04:30:34.498Z,91.20
2019-05-23T04:33:03.757Z,91.10
2019-05-23T04:35:32.328Z,91.00
2019-05-23T04:38:00.938Z,91.20
2019-05-23T04:40:30.114Z,91.30
2019-05-23T04:42:58.436Z,91.20
2019-05-23T04:45:27.919Z,91.20
2019-05-23T04:47:56.611Z,91.20
2019-05-23T04:50:25.753Z,91.40
2019-05-23T04:52:54.573Z,91.40
2019-05-23T04:55:24.865Z,91.50
2019-05-23T04:57:53.457Z,91.40
2019-05-23T05:00:23.216Z,91.40
2019-05-23T05:02:51.701Z,91.50
2019-05-23T05:05:20.401Z,91.40
2019-05-23T05:07:48.818Z,91.20
2019-05-23T05:10:20.652Z,91.10
2019-05-23T05:12:49.210Z,91.20
2019-05-23T05:15:17.700Z,91.20
2019-05-23T05:17:46.811Z,90.70
2019-05-23T05:20:15.775Z,90.70
2019-05-23T05:22:44.239Z,91.10
2019-05-23T05:25:12.960Z,91.10
2019-05-23T05:27:41.393Z,91.10
2019-05-23T05:30:10.146Z,91.40
2019-05-23T05:32:44.755Z,91.50
2019-05-23T05:35:09.384Z,91.70
2019-05-23T05:37:38.037Z,91.50
2019-05-23T05:40:07.379Z,91.30
2019-05-23T05:42:36.741Z,91.40
2019-05-23T05:45:09.153Z,91.20
2019-05-23T05:47:38.191Z,90.80
2019-05-23T05:50:10.835Z,91.10
2019-05-23T05:52:40.502Z,91.30
2019-05-23T05:55:08.911Z,91.00
2019-05-23T05:57:37.425Z,90.80
2019-05-23T06:00:15.111Z,90.70
2019-05-23T06:03:00.774Z,90.80
2019-05-23T06:05:24.756Z,90.70
2019-05-23T06:07:53.869Z,90.70
2019-05-23T06:10:22.422Z,90.50
2019-05-23T06:12:50.857Z,90.60
2019-05-23T06:15:20.122Z,90.50
2019-05-23T06:17:48.793Z,90.50
2019-05-23T06:20:17.114Z,90.20
2019-05-23T06:22:46.357Z,90.00
2019-05-23T06:25:15.143Z,89.40
2019-05-23T06:27:44.134Z,89.30
2019-05-23T06:30:13.872Z,90.10
2019-05-23T06:32:42.401Z,90.00
2019-05-23T06:35:10.930Z,89.30
2019-05-23T06:37:40.107Z,90.20
2019-05-23T06:40:09.033Z,90.80
2019-05-23T06:42:37.511Z,90.10
2019-05-23T06:45:07.762Z,88.70
2019-05-23T06:47:36.316Z,87.30
2019-05-23T06:50:10.517Z,88.10
2019-05-23T06:52:38.944Z,89.10
2019-05-23T06:55:07.485Z,88.40
2019-05-23T06:57:35.861Z,88.70
2019-05-23T07:00:06.549Z,87.30
2019-05-23T07:02:35.068Z,85.60
2019-05-23T07:05:04.261Z,86.00
2019-05-23T07:07:33.943Z,86.30
2019-05-23T07:10:02.769Z,87.20
2019-05-23T07:12:31.177Z,87.30
2019-05-23T07:14:59.685Z,88.10
2019-05-23T07:17:28.603Z,88.30
2019-05-23T07:19:57.345Z,88.40
2019-05-23T07:22:26.866Z,86.20
2019-05-23T07:24:58.584Z,84.60
2019-05-23T07:27:25.586Z,83.60
2019-05-23T07:29:54.186Z,84.30
2019-05-23T07:32:22.594Z,84.40
2019-05-23T07:34:50.942Z,84.30
2019-05-23T07:37:19.379Z,84.80
2019-05-23T07:39:48.225Z,84.30
2019-05-23T07:42:16.994Z,84.60
2019-05-23T07:44:48.585Z,85.10
2019-05-23T07:47:18.151Z,84.20
2019-05-23T07:49:46.517Z,84.60
2019-05-23T07:52:15.097Z,82.20
2019-05-23T07:54:45.144Z,83.60
2019-05-23T07:57:15.163Z,85.70
2019-05-23T07:59:44.443Z,85.70
2019-05-23T08:02:25.631Z,84.60
2019-05-23T08:04:53.959Z,85.60
2019-05-23T08:07:22.664Z,85.30
2019-05-23T08:09:51.355Z,85.50
2019-05-23T08:12:19.745Z,86.10
2019-05-23T08:14:48.100Z,85.30
2019-05-23T08:17:16.991Z,84.60
2019-05-23T08:19:49.578Z,85.40
2019-05-23T08:22:15.516Z,84.50
2019-05-23T08:24:43.906Z,84.90
2019-05-23T08:27:12.300Z,86.20
2019-05-23T08:29:41.429Z,86.30
2019-05-23T08:32:09.920Z,86.20
2019-05-23T08:34:42.526Z,85.60
2019-05-23T08:37:10.873Z,83.50
2019-05-23T08:39:40.409Z,83.70
2019-05-23T08:42:09.624Z,82.70
2019-05-23T08:44:38.013Z,83.70
2019-05-23T08:47:08.163Z,82.70
2019-05-23T08:49:36.571Z,82.50
2019-05-23T08:52:05.878Z,80.40
2019-05-23T08:54:35.460Z,80.30
2019-05-23T08:57:05.165Z,80.70
2019-05-23T08:59:33.745Z,81.50
2019-05-23T09:02:03.175Z,81.60
2019-05-23T09:04:31.561Z,81.70
2019-05-23T09:07:00.533Z,81.50
2019-05-23T09:09:30.631Z,80.50
2019-05-23T09:11:59.674Z,80.20
2019-05-23T09:14:28.254Z,80.70
2019-05-23T09:16:56.737Z,80.90
2019-05-23T09:19:25.149Z,79.50
2019-05-23T09:21:57.777Z,78.60
2019-05-23T09:24:23.948Z,79.00
2019-05-23T09:26:52.663Z,80.30
2019-05-23T09:29:21.279Z,80.60
2019-05-23T09:31:50.144Z,80.60
2019-05-23T09:34:18.752Z,79.80
2019-05-23T09:36:47.240Z,79.20
2019-05-23T09:39:17.626Z,78.40
2019-05-23T09:41:46.457Z,78.90
2019-05-23T09:44:14.940Z,79.20
2019-05-23T09:46:43.330Z,79.20
2019-05-23T09:49:11.792Z,78.70
2019-05-23T09:51:40.251Z,79.60
2019-05-23T09:54:08.663Z,79.80
2019-05-23T09:56:37.295Z,78.80
2019-05-23T09:59:05.707Z,78.80
2019-05-23T10:01:34.162Z,78.30
2019-05-23T10:04:02.579Z,77.70
2019-05-23T10:08:58.452Z,79.40
2019-05-23T10:11:26.802Z,79.40
2019-05-23T10:13:55.218Z,81.30
2019-05-23T10:16:23.671Z,80.60
2019-05-23T10:18:52.062Z,80.70
2019-05-23T10:21:20.451Z,79.30
2019-05-23T10:23:49.021Z,78.10
2019-05-23T10:26:17.479Z,79.00
2019-05-23T10:28:45.938Z,78.80
2019-05-23T10:31:14.998Z,79.70
2019-05-23T10:33:43.376Z,78.10
2019-05-23T10:36:11.798Z,77.40
2019-05-23T10:38:40.271Z,76.60
2019-05-23T10:41:08.805Z,73.50
2019-05-23T10:43:37.291Z,73.90
2019-05-23T10:46:05.696Z,74.50
2019-05-23T10:48:35.849Z,74.60
2019-05-23T10:51:06.175Z,74.60
2019-05-23T10:53:34.705Z,73.90
2019-05-23T10:56:03.215Z,73.30
2019-05-23T10:58:32.069Z,72.90
2019-05-23T11:01:00.456Z,72.70
2019-05-23T11:03:29.030Z,72.70
2019-05-23T11:05:57.568Z,71.90
2019-05-23T11:08:28.929Z,71.60
2019-05-23T11:10:56.187Z,70.10
2019-05-23T11:13:24.734Z,67.70
2019-05-23T11:15:53.262Z,68.70
2019-05-23T11:18:22.165Z,66.60
2019-05-23T11:20:50.746Z,67.60
2019-05-23T11:23:20.769Z,68.40
2019-05-23T11:25:49.173Z,68.70
2019-05-23T11:28:17.468Z,68.40
2019-05-23T11:30:50.762Z,69.00
2019-05-23T11:33:20.559Z,69.80
2019-05-23T11:35:48.985Z,64.80
2019-05-23T11:38:17.399Z,65.70
2019-05-23T11:40:45.777Z,65.50
2019-05-23T11:43:14.247Z,62.60
2019-05-23T11:45:46.040Z,63.70
2019-05-23T11:48:16.153Z,63.50
2019-05-23T11:50:44.488Z,62.20
2019-05-23T11:53:12.996Z,60.80
2019-05-23T11:55:41.387Z,58.80
2019-05-23T11:58:09.806Z,58.40
2019-05-23T12:00:55.591Z,59.00
2019-05-23T12:03:24.122Z,61.70
2019-05-23T12:05:52.715Z,63.60
2019-05-23T12:08:21.202Z,64.80
2019-05-23T12:10:49.654Z,59.90
2019-05-23T12:13:18.366Z,56.30
2019-05-23T12:15:47.163Z,56.20
2019-05-23T12:18:15.761Z,54.90
2019-05-23T12:20:44.157Z,54.40
2019-05-23T12:23:12.586Z,50.20
2019-05-23T12:25:41.193Z,56.90
2019-05-23T12:28:10.721Z,55.30
2019-05-23T12:30:39.097Z,53.10
2019-05-23T12:33:07.486Z,50.20
2019-05-23T12:35:35.990Z,45.90
2019-05-23T12:38:04.405Z,42.00
2019-05-23T12:40:32.802Z,41.00
2019-05-23T12:43:01.380Z,40.30
2019-05-23T12:45:29.771Z,38.80
2019-05-23T12:48:16.237Z,38.10
2019-05-23T12:50:53.766Z,38.10
2019-05-23T12:53:19.504Z,37.00
2019-05-23T12:55:47.909Z,36.50
2019-05-23T12:58:17.550Z,36.00
2019-05-23T13:00:50.316Z,36.00
2019-05-23T13:03:19.031Z,35.40
2019-05-23T13:05:47.438Z,35.50
2019-05-23T13:08:16.783Z,34.90
2019-05-23T13:10:45.522Z,34.60
2019-05-23T13:13:14.586Z,33.90
2019-05-23T13:15:43.194Z,32.30
2019-05-23T13:18:11.598Z,31.90
2019-05-23T13:20:40.292Z,32.40
2019-05-23T13:23:09.222Z,32.60
2019-05-23T13:25:38.191Z,32.20
2019-05-23T13:28:06.510Z,31.40
2019-05-23T13:30:34.941Z,30.60
2019-05-23T13:33:03.964Z,30.20
2019-05-23T13:35:32.939Z,30.40
2019-05-23T13:38:01.273Z,29.90
2019-05-23T13:40:29.939Z,29.70
2019-05-23T13:42:58.395Z,29.40
2019-05-23T13:45:26.803Z,29.10
2019-05-23T13:47:55.270Z,28.40
2019-05-23T13:50:23.618Z,28.50
2019-05-23T13:52:52.169Z,28.40
2019-05-23T13:55:21.045Z,27.40
2019-05-23T13:57:49.473Z,27.70
2019-05-23T14:00:18.194Z,27.80
2019-05-23T14:02:47.355Z,27.50
2019-05-23T14:05:18.873Z,26.70
2019-05-23T14:07:45.978Z,27.00
2019-05-23T14:10:14.392Z,26.90
2019-05-23T14:12:43.116Z,26.40
2019-05-23T14:15:13.270Z,26.20
2019-05-23T14:17:43.336Z,25.90
2019-05-23T14:20:12.386Z,25.80
2019-05-23T14:22:54.588Z,25.60
2019-05-23T14:25:23.261Z,25.40
2019-05-23T14:27:56.349Z,25.70
2019-05-23T14:30:38.558Z,25.60
2019-05-23T14:33:21.144Z,25.30
2019-05-23T14:35:51.372Z,24.90
2019-05-23T14:38:30.387Z,24.50
2019-05-23T14:40:49.880Z,24.30
2019-05-23T14:43:28.425Z,23.90
2019-05-23T14:46:04.299Z,24.30
2019-05-23T14:48:34.699Z,24.70
2019-05-23T14:51:21.025Z,24.10
2019-05-23T14:53:56.980Z,24.40
2019-05-23T14:56:27.009Z,24.80
2019-05-23T14:58:55.335Z,25.00
2019-05-23T15:01:24.975Z,25.00
2019-05-23T15:03:54.392Z,24.40
2019-05-23T15:06:23.588Z,24.00
2019-05-23T15:08:52.460Z,23.70
2019-05-23T15:11:21.307Z,23.90
2019-05-23T15:13:50.134Z,24.10
2019-05-23T15:16:18.836Z,24.50
2019-05-23T15:18:47.249Z,24.70
2019-05-23T15:21:16.032Z,24.70
2019-05-23T15:23:44.378Z,23.50
2019-05-23T15:26:22.521Z,23.10
2019-05-23T15:28:42.703Z,22.80
2019-05-23T15:31:11.485Z,22.70
2019-05-23T15:33:39.895Z,23.10
2019-05-23T15:36:21.065Z,23.20
2019-05-23T15:38:49.415Z,23.00
2019-05-23T15:41:18.973Z,22.70
2019-05-23T15:43:47.373Z,22.40
2019-05-23T15:46:15.857Z,22.30
2019-05-23T15:48:44.280Z,22.40
2019-05-23T15:51:14.218Z,22.30
2019-05-23T15:53:50.389Z,22.00
2019-05-23T15:56:27.547Z,21.90
2019-05-23T15:58:55.082Z,21.80
2019-05-23T16:01:25.119Z,21.90
2019-05-23T16:03:58.154Z,21.90
2019-05-23T16:06:28.184Z,22.10
2019-05-23T16:08:56.848Z,22.00
2019-05-23T16:11:25.456Z,21.80
2019-05-23T16:13:53.804Z,21.80
2019-05-23T16:16:22.495Z,21.70
2019-05-23T16:18:51.680Z,22.20
2019-05-23T16:21:20.158Z,22.30
2019-05-23T16:23:48.528Z,22.30
2019-05-23T16:26:17.346Z,22.30
2019-05-23T16:28:45.704Z,22.20
2019-05-23T16:31:14.074Z,22.30
2019-05-23T16:33:42.462Z,22.90
2019-05-23T16:36:10.824Z,24.20
2019-05-23T16:38:39.549Z,25.10
2019-05-23T16:41:11.236Z,26.20
2019-05-23T16:43:38.053Z,26.70
2019-05-23T16:46:06.536Z,27.20
2019-05-23T16:48:34.889Z,27.70
2019-05-23T16:51:03.180Z,28.30
2019-05-23T16:53:35.943Z,28.80
2019-05-23T16:56:10.865Z,29.20
2019-05-23T16:58:57.358Z,29.30
2019-05-23T17:01:28.519Z,29.90
2019-05-23T17:03:58.501Z,30.00
2019-05-23T17:06:40.702Z,30.20
2019-05-23T17:09:31.329Z,30.10
2019-05-23T17:11:58.884Z,30.70
2019-05-23T17:14:28.887Z,30.50
2019-05-23T17:17:14.042Z,31.00
2019-05-23T17:19:46.871Z,31.20
2019-05-23T17:22:17.105Z,31.50
2019-05-23T17:24:47.208Z,31.80
2019-05-23T17:27:35.495Z,32.10
2019-05-23T17:30:19.290Z,32.30
2019-05-23T17:32:47.809Z,32.50
2019-05-23T17:35:16.210Z,33.00
2019-05-23T17:37:44.559Z,33.30
2019-05-23T17:40:24.404Z,33.40
2019-05-23T17:42:43.499Z,33.70
2019-05-23T17:45:14.188Z,33.90
2019-05-23T17:47:41.972Z,33.50
2019-05-23T17:50:10.359Z,34.00
2019-05-23T17:52:38.793Z,34.30
2019-05-23T17:55:07.180Z,34.70
2019-05-23T17:57:36.028Z,35.60
2019-05-23T18:00:09.471Z,35.70
2019-05-23T18:02:37.787Z,36.70
2019-05-23T18:05:08.347Z,37.20
2019-05-23T18:07:38.303Z,37.10
2019-05-23T18:10:11.280Z,37.80
2019-05-23T18:12:39.871Z,37.00
2019-05-23T18:15:09.945Z,37.40
2019-05-23T18:17:38.375Z,37.50
2019-05-23T18:20:07.374Z,38.00
2019-05-23T18:22:37.007Z,38.40
2019-05-23T18:25:07.736Z,38.90
2019-05-23T18:27:35.409Z,39.10
2019-05-23T18:30:06.869Z,39.40
2019-05-23T18:32:35.731Z,39.70
2019-05-23T18:35:07.046Z,40.00
2019-05-23T18:37:35.546Z,40.40
2019-05-23T18:40:06.568Z,40.70
2019-05-23T18:42:35.135Z,41.20
2019-05-23T18:45:07.404Z,41.60
2019-05-23T18:47:37.512Z,42.00
2019-05-23T18:50:11.546Z,42.30
2019-05-23T18:52:39.968Z,42.80
2019-05-23T18:55:08.312Z,43.20
2019-05-23T18:57:37.013Z,43.40
2019-05-23T19:00:09.542Z,43.90
2019-05-23T19:02:38.029Z,44.10
2019-05-23T19:05:09.485Z,44.70
2019-05-23T19:07:39.196Z,45.00
2019-05-23T19:10:09.139Z,45.30
2019-05-23T19:15:06.350Z,46.50
2019-05-23T19:17:35.184Z,47.10
2019-05-23T19:20:05.889Z,47.20
2019-05-23T19:22:34.613Z,47.70
2019-05-23T19:25:04.230Z,48.00
2019-05-23T19:27:32.942Z,48.30
2019-05-23T19:30:02.149Z,48.50
2019-05-23T19:32:31.610Z,49.00
2019-05-23T19:34:59.948Z,49.40
2019-05-23T19:37:28.459Z,49.40
2019-05-23T19:39:56.854Z,49.10
2019-05-23T19:42:25.623Z,49.40
2019-05-23T19:44:54.006Z,49.40
2019-05-23T19:47:22.429Z,49.50
2019-05-23T19:49:50.921Z,49.60
2019-05-23T19:52:20.118Z,50.30
2019-05-23T19:54:48.469Z,50.50
2019-05-23T19:57:16.873Z,50.80
2019-05-23T19:59:45.295Z,51.00
2019-05-23T20:02:15.334Z,51.20
2019-05-23T20:04:46.040Z,51.50
2019-05-23T20:07:15.762Z,51.80
2019-05-23T20:09:44.392Z,52.00
2019-05-23T20:12:14.513Z,52.20
2019-05-23T20:14:42.847Z,52.30
2019-05-23T20:17:11.481Z,53.10
2019-05-23T20:19:39.923Z,52.70
2019-05-23T20:22:08.313Z,53.00
2019-05-23T20:24:36.780Z,53.20
2019-05-23T20:27:05.205Z,53.60
2019-05-23T20:29:33.605Z,54.20
2019-05-23T20:32:02.067Z,54.70
2019-05-23T20:34:31.050Z,54.30
2019-05-23T20:36:59.503Z,54.70
2019-05-23T20:39:28.121Z,55.00
2019-05-23T20:42:10.178Z,55.20
2019-05-23T20:44:26.577Z,55.40
2019-05-23T20:46:55.100Z,55.50
2019-05-23T20:49:27.031Z,55.70
2019-05-23T20:51:53.884Z,55.70
2019-05-23T20:54:22.302Z,55.70
2019-05-23T20:56:50.726Z,55.80
2019-05-23T20:59:19.244Z,56.30
2019-05-23T21:01:48.057Z,55.90
2019-05-23T21:04:16.455Z,55.80
2019-05-23T21:06:44.899Z,55.90
2019-05-23T21:09:15.742Z,56.10
2019-05-23T21:11:43.507Z,56.30
2019-05-23T21:14:11.886Z,56.60
2019-05-23T21:16:40.449Z,56.80
2019-05-23T21:19:08.877Z,56.70
2019-05-23T21:21:37.387Z,57.30
2019-05-23T21:24:06.022Z,57.90
2019-05-23T21:26:34.479Z,58.30
2019-05-23T21:29:02.895Z,58.60
2019-05-23T21:31:32.465Z,58.80
2019-05-23T21:34:00.863Z,59.20
2019-05-23T21:36:29.299Z,59.50
2019-05-23T21:38:57.687Z,59.80
2019-05-23T21:41:26.253Z,60.10
2019-05-23T21:43:56.449Z,60.70
2019-05-23T21:46:24.963Z,61.10
2019-05-23T21:48:53.539Z,61.70
2019-05-23T21:51:21.923Z,62.40
2019-05-23T21:53:50.325Z,62.90
2019-05-23T21:56:18.727Z,63.40
2019-05-23T21:58:47.063Z,63.80
2019-05-23T22:01:18.645Z,63.70
2019-05-23T22:04:05.221Z,64.10
2019-05-23T22:06:35.513Z,64.60
2019-05-23T22:09:08.418Z,64.50
2019-05-23T22:11:36.992Z,63.90
2019-05-23T22:14:05.786Z,63.80
2019-05-23T22:16:34.174Z,63.80
2019-05-23T22:19:03.951Z,64.20
2019-05-23T22:21:32.435Z,64.20
2019-05-23T22:24:01.306Z,64.00
2019-05-23T22:26:29.873Z,64.00
2019-05-23T22:28:58.423Z,63.60
2019-05-23T22:31:27.356Z,63.80
2019-05-23T22:34:00.276Z,63.60
2019-05-23T22:36:28.851Z,64.00
2019-05-23T22:38:57.214Z,64.20
2019-05-23T22:41:25.658Z,64.60
2019-05-23T22:43:54.009Z,65.10
2019-05-23T22:46:23.472Z,64.90
2019-05-23T22:48:52.020Z,64.50
2019-05-23T22:51:20.390Z,65.20
2019-05-23T22:53:48.809Z,65.20
2019-05-23T22:56:17.211Z,65.00
2019-05-23T22:58:45.670Z,65.10
2019-05-23T23:03:42.581Z,65.60
2019-05-23T23:06:11.395Z,66.10
2019-05-23T23:08:39.851Z,66.40
2019-05-23T23:11:08.643Z,66.70
2019-05-23T23:13:39.339Z,67.10
2019-05-23T23:16:07.820Z,66.70
2019-05-23T23:18:36.250Z,66.10
2019-05-23T23:21:04.669Z,64.90
2019-05-23T23:23:33.117Z,64.20
2019-05-23T23:26:01.545Z,63.60
2019-05-23T23:28:29.925Z,63.90
2019-05-23T23:30:58.598Z,63.50
2019-05-23T23:33:27.006Z,62.90
2019-05-23T23:35:55.398Z,62.90
2019-05-23T23:38:23.791Z,62.80
2019-05-23T23:40:52.243Z,62.50
2019-05-23T23:43:20.648Z,62.30
2019-05-23T23:46:06.949Z,62.30
2019-05-23T23:48:53.543Z,62.20
2019-05-23T23:51:40.276Z,62.40
2019-05-23T23:54:26.436Z,62.50
2019-05-23T23:57:11.924Z,62.30
2019-05-23T23:59:39.596Z,62.60
